Time;durP1;ratioP1;P1;durP2;ratioP2;P2;SDS_P1;SDS_P2;PMS_P1;PMS_P2;Temp;Humidity;BMP_temperature;BMP_pressure;BME280_temperature;BME280_humidity;BME280_pressure;Samples;Min_cycle;Max_cycle;Signal;HPM_P1;HPM_P2
2023/07/13 00:00:44;;;;;;;1.23;0.70;;;24.30;59.30;;;;;;5071119;28;20033;-85
2023/07/13 00:03:13;;;;;;;1.42;0.98;;;24.40;59.30;;;;;;5071853;28;20520;-79
2023/07/13 00:05:41;;;;;;;2.75;1.60;;;24.40;59.30;;;;;;5054570;28;20432;-85
2023/07/13 00:08:08;;;;;;;1.20;0.73;;;24.40;59.30;;;;;;5074495;28;20044;-79
2023/07/13 00:10:39;;;;;;;1.30;0.88;;;24.30;59.50;;;;;;5058134;28;20036;-85
2023/07/13 00:13:05;;;;;;;1.02;0.90;;;24.30;60.00;;;;;;5076932;28;20043;-84
2023/07/13 00:15:31;;;;;;;1.80;0.80;;;24.30;59.90;;;;;;5075126;28;20112;-79
2023/07/13 00:17:57;;;;;;;1.08;0.70;;;24.30;59.90;;;;;;5075144;28;20040;-84
2023/07/13 00:20:25;;;;;;;2.05;0.88;;;24.20;60.00;;;;;;5074724;28;20040;-79
2023/07/13 00:22:53;;;;;;;2.50;1.40;;;24.20;60.00;;;;;;5075318;28;20037;-79
2023/07/13 00:25:21;;;;;;;1.20;0.75;;;24.20;60.20;;;;;;5074875;28;20559;-79
2023/07/13 00:27:48;;;;;;;0.47;0.47;;;24.10;60.10;;;;;;5074790;28;20097;-84
2023/07/13 00:30:15;;;;;;;1.80;0.98;;;24.10;59.60;;;;;;5074686;28;20657;-84
2023/07/13 00:32:41;;;;;;;1.35;1.08;;;24.10;60.20;;;;;;5076606;28;20051;-85
2023/07/13 00:35:08;;;;;;;2.15;0.70;;;24.10;60.50;;;;;;5058055;28;20033;-79
2023/07/13 00:37:35;;;;;;;0.75;0.55;;;24.10;60.30;;;;;;5075346;28;20039;-79
2023/07/13 00:40:05;;;;;;;1.15;1.02;;;24.10;60.80;;;;;;5058220;28;20028;-85
2023/07/13 00:42:31;;;;;;;0.47;0.43;;;24.10;60.90;;;;;;5057954;28;20062;-80
2023/07/13 00:45:54;;;;;;;2.40;0.65;;;24.10;60.80;;;;;;5074540;28;20038;-84
2023/07/13 00:48:39;;;;;;;2.35;1.08;;;24.10;60.90;;;;;;5075114;28;20041;-80
2023/07/13 00:51:05;;;;;;;1.63;1.17;;;24.00;61.30;;;;;;5074443;28;20392;-79
2023/07/13 00:53:34;;;;;;;2.05;1.52;;;23.90;61.50;;;;;;5074862;28;20090;-85
2023/07/13 00:56:00;;;;;;;2.78;2.28;;;23.90;61.50;;;;;;5074267;28;20025;-85
2023/07/13 00:58:28;;;;;;;1.58;1.02;;;23.90;61.50;;;;;;5057897;28;20045;-79
2023/07/13 01:00:54;;;;;;;1.05;0.70;;;23.90;61.40;;;;;;5073927;28;20032;-80
2023/07/13 01:03:20;;;;;;;2.28;1.17;;;23.90;61.50;;;;;;5057743;28;20037;-85
2023/07/13 01:05:49;;;;;;;1.42;0.85;;;23.90;61.60;;;;;;5057532;28;20033;-85
2023/07/13 01:08:16;;;;;;;4.32;1.65;;;23.90;61.70;;;;;;5074548;28;20412;-85
2023/07/13 01:11:09;;;;;;;1.15;0.63;;;23.90;61.20;;;;;;5057118;28;20464;-79
2023/07/13 01:13:35;;;;;;;1.75;0.95;;;24.00;61.40;;;;;;5074441;28;20041;-84
2023/07/13 01:16:15;;;;;;;2.40;1.15;;;24.00;61.70;;;;;;5073895;28;20044;-85
2023/07/13 01:18:42;;;;;;;1.67;0.82;;;23.90;61.70;;;;;;5056969;28;20297;-78
2023/07/13 01:21:08;;;;;;;0.65;0.55;;;23.90;62.10;;;;;;5056913;28;20040;-84
2023/07/13 01:23:34;;;;;;;2.40;1.35;;;23.90;62.30;;;;;;5073834;28;20029;-79
2023/07/13 01:26:00;;;;;;;2.55;1.23;;;23.80;62.60;;;;;;5073383;28;20036;-84
2023/07/13 01:28:28;;;;;;;1.05;0.63;;;23.80;62.70;;;;;;5074085;28;20039;-79
2023/07/13 01:30:57;;;;;;;1.65;0.98;;;23.70;63.30;;;;;;5056491;28;20035;-79
2023/07/13 01:33:23;;;;;;;1.25;0.88;;;23.60;63.10;;;;;;5075719;28;20024;-79
2023/07/13 01:35:49;;;;;;;0.77;0.52;;;23.70;63.10;;;;;;5056509;28;20033;-80
2023/07/13 01:38:19;;;;;;;3.25;1.05;;;23.70;62.90;;;;;;5057152;28;20035;-79
2023/07/13 01:40:45;;;;;;;0.85;0.47;;;23.70;62.90;;;;;;5056602;28;20032;-79
2023/07/13 01:43:11;;;;;;;1.15;0.65;;;23.70;63.10;;;;;;5073698;28;20386;-86
2023/07/13 01:45:37;;;;;;;3.15;1.77;;;23.60;62.70;;;;;;5073318;28;20078;-79
2023/07/13 01:48:06;;;;;;;1.50;1.00;;;23.60;63.10;;;;;;5075084;28;20036;-85
2023/07/13 01:50:33;;;;;;;0.60;0.60;;;23.60;62.50;;;;;;5073217;28;20036;-85
2023/07/13 01:52:59;;;;;;;2.95;1.30;;;23.60;63.30;;;;;;5073363;28;20135;-85
2023/07/13 01:55:25;;;;;;;0.85;0.55;;;23.60;62.80;;;;;;5074421;28;20108;-79
2023/07/13 01:57:51;;;;;;;;;;;23.60;63.40;;;;;;5073854;28;20032;-79
2023/07/13 02:00:18;;;;;;;1.08;0.60;;;23.50;63.50;;;;;;5072869;28;19918;-79
2023/07/13 02:02:44;;;;;;;1.25;1.15;;;23.50;63.60;;;;;;5074812;28;20044;-79
2023/07/13 02:05:12;;;;;;;0.82;0.60;;;23.50;63.80;;;;;;5056138;28;20024;-84
2023/07/13 02:07:39;;;;;;;0.60;0.60;;;23.50;63.70;;;;;;5073180;28;20044;-79
2023/07/13 02:10:07;;;;;;;0.80;0.40;;;23.40;63.70;;;;;;5072833;28;20036;-85
2023/07/13 02:12:34;;;;;;;1.05;0.68;;;23.40;63.90;;;;;;5073260;28;20036;-79
2023/07/13 02:15:01;;;;;;;1.60;1.17;;;23.40;63.90;;;;;;5056437;28;20031;-84
2023/07/13 02:17:27;;;;;;;2.20;1.45;;;23.40;63.50;;;;;;5073817;28;20048;-79
2023/07/13 02:19:54;;;;;;;0.68;0.68;;;23.40;64.60;;;;;;5072611;28;20119;-84
2023/07/13 02:22:21;;;;;;;0.40;0.40;;;23.40;64.60;;;;;;5074098;28;20041;-85
2023/07/13 02:24:47;;;;;;;0.47;0.35;;;23.40;64.30;;;;;;5073012;28;20024;-85
2023/07/13 02:27:13;;;;;;;2.33;1.30;;;23.40;64.30;;;;;;5072719;28;20060;-85
2023/07/13 02:29:39;;;;;;;1.05;0.77;;;23.40;64.30;;;;;;5073924;28;20059;-84
2023/07/13 02:32:06;;;;;;;2.65;1.23;;;23.40;64.30;;;;;;5055393;28;20370;-84
2023/07/13 02:34:32;;;;;;;1.95;0.88;;;23.50;64.20;;;;;;5073866;28;20435;-79
2023/07/13 02:36:58;;;;;;;1.85;0.65;;;23.40;64.70;;;;;;5072213;28;20070;-85
2023/07/13 02:39:24;;;;;;;;;;;23.40;64.60;;;;;;5073428;28;20028;-84
2023/07/13 02:41:50;;;;;;;1.58;0.88;;;23.50;64.30;;;;;;5071831;28;19920;-85
2023/07/13 02:44:16;;;;;;;;;;;23.40;64.40;;;;;;5073345;28;20592;-85
2023/07/13 02:46:42;;;;;;;1.27;0.80;;;23.40;64.20;;;;;;5072191;28;19920;-85
2023/07/13 02:49:08;;;;;;;2.47;1.48;;;23.40;64.30;;;;;;5072541;28;20060;-79
2023/07/13 02:51:35;;;;;;;0.35;0.25;;;23.40;64.40;;;;;;5071503;28;20040;-78
2023/07/13 02:54:04;;;;;;;0.85;0.50;;;23.40;64.50;;;;;;5072150;28;20374;-84
2023/07/13 02:56:32;;;;;;;2.20;1.23;;;23.40;64.50;;;;;;5072001;28;20431;-85
2023/07/13 02:58:58;;;;;;;1.23;0.70;;;23.40;64.50;;;;;;5072412;28;20422;-79
2023/07/13 03:01:25;;;;;;;1.20;0.77;;;23.50;64.70;;;;;;5055066;28;20036;-85
2023/07/13 03:03:53;;;;;;;4.78;1.05;;;23.40;64.50;;;;;;5072188;28;20044;-79
2023/07/13 03:06:21;;;;;;;0.52;0.40;;;23.40;64.50;;;;;;5054971;28;20507;-79
2023/07/13 03:08:49;;;;;;;1.50;0.45;;;23.40;64.20;;;;;;5055834;28;20040;-85
2023/07/13 03:11:35;;;;;;;1.23;1.08;;;23.40;64.70;;;;;;5055360;28;20028;-85
2023/07/13 03:14:01;;;;;;;1.65;0.90;;;23.50;64.70;;;;;;5055346;28;20090;-79
2023/07/13 03:16:27;;;;;;;1.08;0.70;;;23.40;64.60;;;;;;5071579;28;20032;-80
2023/07/13 03:18:53;;;;;;;;;;;23.40;64.80;;;;;;5055724;28;20515;-79
2023/07/13 03:21:19;;;;;;;0.47;0.40;;;23.30;64.80;;;;;;5055026;28;19916;-78
2023/07/13 03:23:45;;;;;;;2.10;1.33;;;23.30;65.50;;;;;;5072071;28;20039;-81
2023/07/13 03:26:18;;;;;;;1.35;0.70;;;23.30;65.90;;;;;;5054327;28;20468;-86
2023/07/13 03:28:44;;;;;;;1.00;0.60;;;23.30;66.10;;;;;;5072247;28;20036;-79
2023/07/13 03:31:34;;;;;;;1.20;0.55;;;23.40;66.60;;;;;;5071307;28;20123;-79
2023/07/13 03:34:01;;;;;;;2.15;1.15;;;23.50;66.50;;;;;;5055246;28;20636;-80
2023/07/13 03:36:29;;;;;;;4.88;1.00;;;23.50;67.00;;;;;;5071389;28;20028;-80
2023/07/13 03:38:59;;;;;;;3.47;1.45;;;23.60;67.20;;;;;;5054977;28;20071;-84
2023/07/13 03:41:26;;;;;;;0.93;0.50;;;23.60;67.00;;;;;;5053804;28;20032;-80
2023/07/13 03:43:53;;;;;;;1.58;1.02;;;23.60;66.80;;;;;;5071992;28;20032;-85
2023/07/13 03:46:19;;;;;;;1.30;0.75;;;23.70;66.80;;;;;;5054852;28;20028;-80
2023/07/13 03:48:47;;;;;;;2.67;1.90;;;23.70;66.20;;;;;;5055333;28;20153;-80
2023/07/13 03:51:15;;;;;;;1.25;0.70;;;23.70;66.80;;;;;;5054165;28;20506;-85
2023/07/13 03:53:45;;;;;;;5.97;1.60;;;23.70;66.60;;;;;;5073482;28;20052;-79
2023/07/13 03:56:15;;;;;;;3.38;1.92;;;23.70;66.40;;;;;;5054634;28;20079;-81
2023/07/13 03:58:42;;;;;;;2.40;1.45;;;23.70;66.00;;;;;;5055543;28;20048;-83
2023/07/13 04:01:11;;;;;;;1.35;1.20;;;23.60;65.70;;;;;;5072244;28;20029;-83
2023/07/13 04:03:38;;;;;;;0.82;0.65;;;23.60;65.50;;;;;;5072087;28;20041;-80
2023/07/13 04:06:07;;;;;;;2.28;0.80;;;23.60;65.30;;;;;;5054390;28;20035;-86
2023/07/13 04:08:36;;;;;;;1.15;0.90;;;23.50;64.70;;;;;;5054920;28;20067;-80
2023/07/13 04:11:04;;;;;;;0.73;0.57;;;23.50;64.50;;;;;;5071118;28;20037;-86
2023/07/13 04:13:31;;;;;;;0.30;0.30;;;23.50;64.30;;;;;;5054918;28;20461;-81
2023/07/13 04:15:57;;;;;;;0.45;0.35;;;23.50;63.50;;;;;;5071285;28;20465;-84
2023/07/13 04:18:23;;;;;;;;;;;23.50;63.80;;;;;;5072274;28;20466;-79
2023/07/13 04:20:50;;;;;;;0.10;0.10;;;23.40;63.60;;;;;;5070655;28;19912;-79
2023/07/13 04:23:18;;;;;;;0.47;0.32;;;23.40;63.20;;;;;;5054967;28;20123;-80
2023/07/13 04:25:46;;;;;;;1.00;0.90;;;23.30;63.20;;;;;;5054452;28;20525;-86
2023/07/13 04:28:12;;;;;;;2.00;0.40;;;23.30;62.90;;;;;;5050210;28;20118;-81
2023/07/13 04:30:38;;;;;;;;;;;23.30;62.90;;;;;;5034275;28;20052;-84
2023/07/13 04:33:04;;;;;;;0.25;0.20;;;23.40;62.80;;;;;;5051293;28;20003;-84
2023/07/13 04:35:31;;;;;;;0.60;0.43;;;23.40;62.50;;;;;;5050729;28;20478;-81
2023/07/13 04:37:57;;;;;;;0.65;0.47;;;23.40;61.80;;;;;;5034935;28;20333;-87
2023/07/13 04:40:23;;;;;;;0.52;0.38;;;23.50;62.40;;;;;;5034254;28;20064;-87
2023/07/13 04:42:50;;;;;;;;;;;23.50;62.40;;;;;;5052810;28;20041;-86
2023/07/13 04:45:17;;;;;;;0.98;0.40;;;23.60;62.30;;;;;;5067196;28;19913;-84
2023/07/13 04:47:43;;;;;;;0.28;0.28;;;23.60;62.00;;;;;;5051427;28;20045;-80
2023/07/13 04:50:10;;;;;;;;;;;23.60;61.90;;;;;;5051567;28;20056;-79
2023/07/13 04:52:37;;;;;;;1.05;0.88;;;23.70;61.30;;;;;;5067620;28;19921;-85
2023/07/13 04:55:04;;;;;;;0.38;0.38;;;23.70;61.10;;;;;;5053385;28;20025;-86
2023/07/13 04:57:30;;;;;;;0.30;0.30;;;23.70;61.00;;;;;;5054485;28;20447;-85
2023/07/13 04:59:56;;;;;;;;;;;23.80;61.40;;;;;;5055571;28;20079;-82
2023/07/13 05:02:22;;;;;;;0.85;0.45;;;23.90;61.30;;;;;;5071052;28;19921;-86
2023/07/13 05:04:48;;;;;;;0.50;0.30;;;24.00;60.80;;;;;;5071415;28;20062;-79
2023/07/13 05:07:15;;;;;;;1.08;0.50;;;24.00;60.60;;;;;;5053817;28;20045;-79
2023/07/13 05:09:41;;;;;;;0.25;0.20;;;24.10;60.70;;;;;;5054567;28;20037;-84
2023/07/13 05:12:09;;;;;;;0.10;0.10;;;24.20;60.50;;;;;;5054942;28;20048;-85
2023/07/13 05:14:36;;;;;;;0.20;0.20;;;24.30;60.10;;;;;;5054596;28;20036;-86
2023/07/13 05:17:02;;;;;;;2.25;0.68;;;24.30;59.80;;;;;;5053652;28;20127;-84
2023/07/13 05:19:28;;;;;;;1.30;0.75;;;24.40;59.50;;;;;;5054585;28;20277;-84
2023/07/13 05:21:54;;;;;;;0.25;0.25;;;24.50;59.10;;;;;;5070370;28;20095;-83
2023/07/13 05:24:20;;;;;;;;;;;24.50;58.90;;;;;;5054825;28;20033;-79
2023/07/13 05:26:46;;;;;;;0.93;0.50;;;24.50;58.70;;;;;;5053407;28;19921;-83
2023/07/13 05:29:12;;;;;;;0.65;0.52;;;24.70;58.10;;;;;;5055282;28;20040;-79
2023/07/13 05:31:38;;;;;;;0.20;0.20;;;24.70;57.70;;;;;;5069945;28;20032;-80
2023/07/13 05:34:05;;;;;;;0.10;0.10;;;24.80;57.30;;;;;;5037279;28;20060;-85
2023/07/13 05:36:31;;;;;;;0.10;0.10;;;24.90;57.30;;;;;;5036607;28;20095;-82
2023/07/13 05:38:57;;;;;;;0.28;0.28;;;25.00;57.10;;;;;;5037208;28;20028;-82
2023/07/13 05:41:24;;;;;;;0.65;0.55;;;25.00;57.00;;;;;;5054261;28;20036;-84
2023/07/13 05:43:50;;;;;;;0.50;0.40;;;25.10;56.90;;;;;;5070223;28;20025;-79
2023/07/13 05:46:16;;;;;;;0.40;0.35;;;25.20;56.80;;;;;;5053329;28;20036;-80
2023/07/13 05:48:42;;;;;;;0.30;0.30;;;25.30;56.70;;;;;;5053966;28;20234;-82
2023/07/13 05:51:09;;;;;;;0.95;0.55;;;25.30;56.40;;;;;;5069016;28;20037;-83
2023/07/13 05:53:36;;;;;;;0.40;0.30;;;25.50;56.30;;;;;;5053653;28;20116;-83
2023/07/13 05:56:02;;;;;;;0.73;0.45;;;25.50;56.30;;;;;;5069652;28;20041;-80
2023/07/13 05:58:28;;;;;;;0.40;0.20;;;25.60;56.20;;;;;;5070305;28;20037;-83
2023/07/13 06:01:14;;;;;;;0.43;0.20;;;25.70;56.30;;;;;;5054073;28;20025;-84
2023/07/13 06:03:41;;;;;;;0.88;0.28;;;25.80;56.10;;;;;;5036732;28;20047;-80
2023/07/13 06:06:10;;;;;;;0.28;0.28;;;25.80;55.60;;;;;;5053368;28;20091;-80
2023/07/13 06:08:36;;;;;;;0.47;0.35;;;25.90;56.20;;;;;;5036591;28;20120;-83
2023/07/13 06:11:24;;;;;;;0.20;0.20;;;25.90;56.60;;;;;;5069265;28;20033;-80
2023/07/13 06:13:50;;;;;;;0.55;0.40;;;26.00;56.90;;;;;;5053043;28;20037;-81
2023/07/13 06:16:17;;;;;;;0.45;0.35;;;26.00;56.30;;;;;;5052738;28;20040;-85
2023/07/13 06:18:44;;;;;;;0.55;0.40;;;26.00;56.10;;;;;;5053528;28;20033;-84
2023/07/13 06:21:14;;;;;;;1.00;0.77;;;26.10;56.10;;;;;;5052560;28;20537;-83
2023/07/13 06:23:40;;;;;;;0.10;0.10;;;26.20;56.30;;;;;;5053421;28;20040;-80
2023/07/13 06:26:08;;;;;;;0.40;0.40;;;26.40;55.80;;;;;;5068756;28;20083;-79
2023/07/13 06:28:35;;;;;;;0.20;0.20;;;26.50;55.30;;;;;;5053369;28;20128;-86
2023/07/13 06:31:02;;;;;;;0.52;0.40;;;26.60;55.00;;;;;;5035748;28;20040;-79
2023/07/13 06:33:29;;;;;;;2.55;0.65;;;26.70;54.90;;;;;;5069289;28;20036;-80
2023/07/13 06:35:55;;;;;;;0.10;0.10;;;26.80;54.30;;;;;;5052232;28;20104;-79
2023/07/13 06:38:21;;;;;;;1.98;0.95;;;26.90;53.30;;;;;;5052996;28;20048;-85
2023/07/13 06:40:48;;;;;;;0.52;0.52;;;27.00;53.10;;;;;;5052389;28;20071;-85
2023/07/13 06:43:14;;;;;;;0.65;0.40;;;27.00;52.00;;;;;;5052766;28;20044;-87
2023/07/13 06:45:59;;;;;;;9.07;0.47;;;27.10;51.60;;;;;;5052452;28;20310;-79
2023/07/13 06:48:25;;;;;;;1.80;0.57;;;27.10;50.90;;;;;;5053225;28;20033;-80
2023/07/13 06:50:52;;;;;;;0.15;0.15;;;27.10;50.10;;;;;;5035288;28;20037;-80
2023/07/13 06:53:20;;;;;;;0.50;0.45;;;27.20;50.60;;;;;;5036215;28;20040;-87
2023/07/13 06:55:47;;;;;;;0.50;0.50;;;27.20;49.70;;;;;;5053432;28;20057;-85
2023/07/13 06:58:16;;;;;;;0.47;0.43;;;27.20;48.90;;;;;;5052562;28;20040;-86
2023/07/13 07:00:42;;;;;;;1.33;0.80;;;27.30;49.20;;;;;;5068464;28;20032;-79
2023/07/13 07:03:08;;;;;;;1.73;1.15;;;27.40;48.60;;;;;;5035676;28;20095;-85
2023/07/13 07:05:34;;;;;;;0.10;0.10;;;27.60;48.80;;;;;;5052156;28;20489;-84
2023/07/13 07:08:00;;;;;;;0.20;0.20;;;27.80;48.70;;;;;;5052470;28;20045;-85
2023/07/13 07:10:29;;;;;;;0.10;0.10;;;27.90;47.80;;;;;;5035125;28;20033;-79
2023/07/13 07:12:55;;;;;;;0.57;0.32;;;28.00;48.20;;;;;;5035376;28;20039;-85
2023/07/13 07:15:21;;;;;;;0.35;0.35;;;28.20;47.80;;;;;;5051931;28;20393;-84
2023/07/13 07:17:47;;;;;;;0.40;0.30;;;28.40;47.40;;;;;;5051172;28;20087;-84
2023/07/13 07:20:14;;;;;;;0.20;0.20;;;28.50;47.10;;;;;;5034832;28;20060;-83
2023/07/13 07:22:40;;;;;;;0.40;0.35;;;28.70;46.90;;;;;;5051768;28;20052;-86
2023/07/13 07:25:06;;;;;;;0.20;0.20;;;28.70;46.90;;;;;;5052076;28;20035;-83
2023/07/13 07:27:33;;;;;;;1.08;0.65;;;28.90;46.60;;;;;;5067981;28;20375;-80
2023/07/13 07:30:00;;;;;;;1.08;0.77;;;28.90;46.60;;;;;;5051947;28;20423;-84
2023/07/13 07:32:30;;;;;;;0.28;0.28;;;28.90;45.90;;;;;;5051413;28;20045;-80
2023/07/13 07:34:58;;;;;;;0.45;0.45;;;28.90;45.90;;;;;;5035089;28;20544;-79
2023/07/13 07:37:24;;;;;;;0.20;0.20;;;29.00;46.70;;;;;;5051177;28;20107;-79
2023/07/13 07:39:51;;;;;;;0.47;0.45;;;29.10;46.40;;;;;;5035044;28;20399;-85
2023/07/13 07:42:17;;;;;;;0.22;0.22;;;29.20;45.40;;;;;;5052383;28;20037;-85
2023/07/13 07:44:43;;;;;;;0.52;0.40;;;29.40;45.70;;;;;;5035067;28;20036;-84
2023/07/13 07:47:09;;;;;;;0.35;0.35;;;29.40;45.50;;;;;;5067809;28;20485;-85
2023/07/13 07:49:38;;;;;;;0.45;0.40;;;29.50;45.40;;;;;;5052660;28;20520;-85
2023/07/13 07:52:04;;;;;;;0.28;0.28;;;29.60;45.00;;;;;;5034208;28;20072;-80
2023/07/13 07:54:31;;;;;;;1.40;1.05;;;29.80;44.90;;;;;;5051645;28;20040;-79
2023/07/13 07:56:57;;;;;;;0.20;0.20;;;29.90;44.90;;;;;;5051022;28;20037;-80
2023/07/13 07:59:23;;;;;;;1.10;0.65;;;30.00;45.10;;;;;;5034839;28;20371;-85
2023/07/13 08:01:50;;;;;;;0.20;0.20;;;30.10;44.80;;;;;;5050574;28;20040;-79
2023/07/13 08:04:16;;;;;;;0.57;0.40;;;30.10;43.90;;;;;;5034992;28;20067;-79
2023/07/13 08:06:42;;;;;;;2.05;1.00;;;30.30;43.40;;;;;;5051015;28;20037;-79
2023/07/13 08:09:08;;;;;;;0.20;0.20;;;30.40;43.90;;;;;;5052489;28;20449;-79
2023/07/13 08:11:34;;;;;;;0.43;0.40;;;30.50;43.90;;;;;;5051789;28;20367;-79
2023/07/13 08:14:00;;;;;;;0.50;0.50;;;30.50;43.70;;;;;;5052652;28;20028;-84
2023/07/13 08:16:27;;;;;;;0.30;0.30;;;30.60;43.60;;;;;;5051368;28;20067;-84
2023/07/13 08:18:53;;;;;;;0.50;0.40;;;30.70;43.40;;;;;;5052717;28;20025;-84
2023/07/13 08:21:22;;;;;;;0.30;0.30;;;30.70;43.00;;;;;;5051884;28;20082;-87
2023/07/13 08:23:48;;;;;;;0.55;0.50;;;30.80;42.40;;;;;;5067875;28;20041;-84
2023/07/13 08:26:14;;;;;;;0.40;0.35;;;30.90;41.70;;;;;;5050618;28;20055;-85
2023/07/13 08:28:42;;;;;;;1.77;1.10;;;30.90;41.90;;;;;;5053910;28;20037;-79
2023/07/13 08:31:08;;;;;;;0.40;0.40;;;31.00;42.10;;;;;;5054544;28;20037;-85
2023/07/13 08:33:36;;;;;;;0.63;0.55;;;31.10;42.50;;;;;;5055263;28;20041;-79
2023/07/13 08:36:03;;;;;;;2.05;1.10;;;31.20;42.10;;;;;;5054802;28;20033;-80
2023/07/13 08:38:29;;;;;;;0.47;0.43;;;31.30;41.40;;;;;;5038316;28;20041;-79
2023/07/13 08:40:56;;;;;;;2.08;1.00;;;31.40;41.30;;;;;;5054203;28;20033;-79
2023/07/13 08:43:45;;;;;;;0.40;0.40;;;31.60;40.90;;;;;;5038145;28;20045;-85
2023/07/13 08:46:49;;;;;;;0.40;0.40;;;31.90;40.80;;;;;;5037612;28;20060;-80
2023/07/13 08:49:19;;;;;;;0.40;0.40;;;32.20;40.10;;;;;;5071389;28;20083;-85
2023/07/13 08:51:53;;;;;;;0.20;0.20;;;32.30;39.30;;;;;;5070871;28;20064;-85
2023/07/13 08:54:38;;;;;;;0.77;0.73;;;32.30;39.40;;;;;;5038063;28;20029;-84
2023/07/13 08:57:33;;;;;;;2.80;1.43;;;32.40;39.20;;;;;;5053969;28;20037;-83
2023/07/13 08:59:59;;;;;;;0.60;0.57;;;32.50;38.70;;;;;;5054587;28;20064;-79
2023/07/13 09:03:03;;;;;;;0.68;0.55;;;32.60;37.60;;;;;;5053813;28;20132;-87
2023/07/13 09:05:53;;;;;;;0.68;0.68;;;32.70;38.50;;;;;;5054297;28;20033;-85
2023/07/13 09:09:15;;;;;;;0.35;0.35;;;32.70;38.10;;;;;;5054529;28;20061;-83
2023/07/13 09:12:18;;;;;;;0.50;0.50;;;32.70;38.00;;;;;;5053509;28;20088;-83
2023/07/13 09:14:52;;;;;;;0.32;0.32;;;33.00;38.20;;;;;;5055476;28;20108;-79
2023/07/13 09:17:25;;;;;;;0.38;0.38;;;33.40;37.40;;;;;;5036885;28;20044;-80
2023/07/13 09:20:11;;;;;;;2.20;2.05;;;33.90;36.80;;;;;;5037395;28;20065;-84
2023/07/13 09:22:38;;;;;;;1.10;0.82;;;34.10;36.40;;;;;;5053863;28;20037;-83
2023/07/13 09:25:41;;;;;;;0.70;0.70;;;34.30;34.60;;;;;;5055093;28;20490;-80
2023/07/13 09:28:31;;;;;;;0.40;0.40;;;35.10;35.20;;;;;;5053998;28;20057;-84
2023/07/13 09:31:38;;;;;;;0.47;0.47;;;35.70;33.20;;;;;;5053152;28;20049;-79
2023/07/13 09:34:23;;;;;;;1.42;1.17;;;36.20;32.70;;;;;;5053976;28;20092;-79
2023/07/13 09:36:49;;;;;;;0.60;0.60;;;36.30;32.40;;;;;;5037052;28;20037;-85
2023/07/13 09:39:39;;;;;;;0.40;0.40;;;36.00;32.30;;;;;;5054487;28;20040;-78
2023/07/13 09:42:25;;;;;;;1.52;1.10;;;36.30;32.40;;;;;;5052777;28;20033;-79
2023/07/13 09:45:10;;;;;;;;;;;36.70;31.70;;;;;;5054589;28;20040;-79
2023/07/13 09:48:14;;;;;;;0.50;0.50;;;37.00;31.80;;;;;;5053780;28;20171;-79
2023/07/13 09:50:41;;;;;;;0.60;0.60;;;37.20;30.50;;;;;;5052841;28;20059;-80
2023/07/13 09:53:31;;;;;;;0.57;0.57;;;37.10;30.20;;;;;;5036826;28;20036;-84
2023/07/13 09:55:56;;;;;;;0.45;0.45;;;37.60;29.60;;;;;;5053071;28;20037;-81
2023/07/13 09:58:27;;;;;;;0.57;0.50;;;37.70;28.70;;;;;;5070215;28;20102;-79
2023/07/13 10:01:12;;;;;;;0.60;0.60;;;37.50;28.80;;;;;;5035950;28;20041;-78
2023/07/13 10:03:39;;;;;;;0.85;0.73;;;37.20;29.50;;;;;;5036969;28;20033;-85
2023/07/13 10:06:26;;;;;;;0.77;0.77;;;37.10;29.30;;;;;;5052933;28;20128;-79
2023/07/13 10:08:54;;;;;;;3.42;1.90;;;37.00;29.50;;;;;;5053059;28;20127;-84
2023/07/13 10:11:24;;;;;;;0.75;0.75;;;36.80;28.90;;;;;;5052345;28;20037;-79
2023/07/13 10:14:27;;;;;;;1.55;0.70;;;36.70;29.00;;;;;;5053020;28;20386;-79
2023/07/13 10:17:03;;;;;;;7.65;1.20;;;36.80;29.10;;;;;;5035765;28;20074;-79
2023/07/13 10:19:49;;;;;;;1.73;1.20;;;36.80;29.00;;;;;;5036845;28;20033;-84
2023/07/13 10:23:12;;;;;;;0.93;0.60;;;37.10;29.60;;;;;;5052107;28;20025;-84
2023/07/13 10:25:44;;;;;;;0.90;0.80;;;37.70;28.50;;;;;;5053640;28;20033;-85
2023/07/13 10:28:37;;;;;;;0.55;0.55;;;37.40;28.40;;;;;;5036440;28;20060;-79
2023/07/13 10:31:12;;;;;;;0.65;0.52;;;37.10;29.00;;;;;;5035379;28;20226;-83
2023/07/13 10:33:38;;;;;;;0.60;0.60;;;37.00;29.00;;;;;;5052937;28;20048;-84
2023/07/13 10:36:33;;;;;;;0.63;0.50;;;36.80;28.70;;;;;;5068905;28;20040;-78
2023/07/13 10:39:04;;;;;;;1.90;0.65;;;36.80;28.90;;;;;;5052767;28;20044;-79
2023/07/13 10:41:35;;;;;;;0.50;0.50;;;36.70;28.80;;;;;;5053094;28;20108;-79
2023/07/13 10:44:03;;;;;;;0.40;0.40;;;36.80;28.70;;;;;;5052370;28;20025;-80
2023/07/13 10:46:30;;;;;;;0.55;0.55;;;36.80;28.70;;;;;;5051992;28;20052;-85
2023/07/13 10:49:15;;;;;;;0.30;0.30;;;36.70;28.80;;;;;;5052352;28;20037;-85
2023/07/13 10:51:42;;;;;;;0.70;0.60;;;36.60;29.00;;;;;;5035012;28;20121;-83
2023/07/13 10:54:46;;;;;;;0.52;0.45;;;36.60;29.00;;;;;;5019183;28;20040;-83
2023/07/13 10:57:31;;;;;;;0.80;0.60;;;36.60;29.10;;;;;;5051697;28;20044;-79
2023/07/13 11:00:18;;;;;;;0.60;0.50;;;36.80;29.10;;;;;;5052277;28;20037;-83
2023/07/13 11:02:57;;;;;;;0.50;0.50;;;37.00;28.90;;;;;;5068877;28;20068;-84
2023/07/13 11:05:43;;;;;;;0.40;0.40;;;37.00;28.50;;;;;;5051885;28;20039;-79
2023/07/13 11:08:46;;;;;;;1.13;0.87;;;37.10;28.40;;;;;;5053619;28;20083;-85
2023/07/13 11:11:34;;;;;;;0.73;0.73;;;37.20;28.40;;;;;;5052582;28;20037;-79
2023/07/13 11:14:05;;;;;;;0.63;0.55;;;37.30;28.20;;;;;;5051859;28;20584;-85
2023/07/13 11:16:49;;;;;;;1.05;0.95;;;37.90;27.50;;;;;;5035188;28;20025;-79
2023/07/13 11:19:15;;;;;;;0.52;0.52;;;38.60;26.60;;;;;;5051863;28;20033;-79
2023/07/13 11:22:37;;;;;;;0.50;0.50;;;38.80;26.30;;;;;;5052553;28;20043;-85
2023/07/13 11:25:40;;;;;;;0.50;0.50;;;38.80;26.70;;;;;;5051470;28;20119;-85
2023/07/13 11:28:26;;;;;;;2.47;0.57;;;38.30;27.20;;;;;;5034813;28;20111;-84
2023/07/13 11:30:52;;;;;;;0.75;0.68;;;38.10;27.50;;;;;;5052317;28;20042;-78
2023/07/13 11:33:39;;;;;;;1.20;0.88;;;38.00;27.40;;;;;;5051914;28;20045;-85
2023/07/13 11:36:29;;;;;;;0.50;0.50;;;38.10;27.60;;;;;;5051401;28;20397;-79
2023/07/13 11:39:04;;;;;;;0.50;0.50;;;38.10;27.40;;;;;;5051640;28;20127;-85
2023/07/13 11:42:08;;;;;;;0.80;0.80;;;38.00;27.40;;;;;;5052089;28;20029;-80
2023/07/13 11:44:35;;;;;;;0.30;0.30;;;38.10;27.20;;;;;;5068545;28;20108;-84
2023/07/13 11:47:20;;;;;;;6.47;0.70;;;38.30;26.90;;;;;;5067967;28;20041;-83
2023/07/13 11:49:52;;;;;;;0.98;0.60;;;38.30;27.00;;;;;;5052866;28;20029;-78
2023/07/13 11:52:24;;;;;;;0.38;0.38;;;38.10;27.60;;;;;;5050855;28;20087;-84
2023/07/13 11:58:03;;;;;;;0.40;0.40;;;37.80;28.10;;;;;;5051678;28;20041;-85
2023/07/13 12:03:24;;;;;;;0.50;0.45;;;37.70;27.90;;;;;;5053327;28;20049;-84
2023/07/13 12:06:29;;;;;;;1.08;0.70;;;37.70;28.20;;;;;;5055148;28;20082;-79
2023/07/13 12:09:15;;;;;;;1.40;1.30;;;37.70;28.50;;;;;;5056596;28;20048;-78
2023/07/13 12:11:43;;;;;;;0.90;0.88;;;37.70;28.60;;;;;;5054679;28;20041;-85
2023/07/13 12:14:28;;;;;;;0.47;0.47;;;37.60;28.70;;;;;;5038647;28;20121;-78
2023/07/13 12:16:56;;;;;;;0.50;0.40;;;37.30;29.10;;;;;;5056041;28;20060;-84
2023/07/13 12:19:41;;;;;;;1.23;1.02;;;37.10;29.30;;;;;;5038632;28;20037;-84
2023/07/13 12:22:12;;;;;;;1.00;0.57;;;37.00;29.30;;;;;;5054586;28;20037;-85
2023/07/13 12:24:40;;;;;;;0.55;0.50;;;36.50;29.10;;;;;;5054989;28;20025;-79
2023/07/13 12:27:18;;;;;;;0.82;0.82;;;36.40;29.80;;;;;;5037716;28;20082;-79
2023/07/13 12:30:11;;;;;;;0.93;0.82;;;36.20;30.50;;;;;;5055148;28;20405;-79
2023/07/13 12:32:37;;;;;;;1.48;1.23;;;36.20;30.70;;;;;;5071561;28;20149;-85
2023/07/13 12:35:22;;;;;;;0.65;0.55;;;36.40;31.20;;;;;;5054648;28;20382;-78
2023/07/13 12:37:48;;;;;;;0.82;0.80;;;36.70;30.10;;;;;;5038318;28;20040;-84
2023/07/13 12:40:34;;;;;;;0.50;0.50;;;36.60;30.30;;;;;;5055804;28;20052;-84
2023/07/13 12:43:04;;;;;;;0.85;0.80;;;36.70;31.00;;;;;;5038098;28;20119;-79
2023/07/13 12:45:30;;;;;;;0.80;0.45;;;37.00;30.50;;;;;;5037768;28;20447;-84
2023/07/13 12:48:18;;;;;;;0.98;0.55;;;37.40;30.10;;;;;;5056096;28;20048;-83
2023/07/13 12:50:49;;;;;;;0.40;0.40;;;38.00;29.60;;;;;;5054376;28;20094;-84
2023/07/13 12:53:20;;;;;;;0.30;0.30;;;38.30;29.30;;;;;;5054775;28;20155;-79
2023/07/13 12:56:06;;;;;;;0.90;0.55;;;38.40;29.10;;;;;;5054017;28;20039;-86
2023/07/13 12:58:44;;;;;;;0.40;0.40;;;38.50;28.30;;;;;;5056251;28;20040;-86
2023/07/13 13:01:13;;;;;;;0.73;0.70;;;38.40;28.60;;;;;;5054706;28;20056;-84
2023/07/13 13:04:06;;;;;;;0.60;0.60;;;38.10;28.70;;;;;;5038095;28;20029;-84
2023/07/13 13:06:35;;;;;;;0.40;0.40;;;37.70;29.50;;;;;;5054692;28;20040;-79
2023/07/13 13:09:03;;;;;;;0.85;0.60;;;37.50;29.80;;;;;;5055516;28;20043;-84
2023/07/13 13:11:31;;;;;;;1.33;0.60;;;37.40;30.20;;;;;;5053732;28;20032;-85
2023/07/13 13:13:57;;;;;;;0.40;0.38;;;37.10;30.60;;;;;;5070222;28;20394;-83
2023/07/13 13:17:01;;;;;;;0.88;0.60;;;36.80;29.90;;;;;;5052727;28;20037;-80
2023/07/13 13:19:29;;;;;;;0.57;0.55;;;36.40;30.90;;;;;;5053955;28;20106;-79
2023/07/13 13:21:57;;;;;;;1.27;0.80;;;35.70;30.70;;;;;;5036728;28;20086;-78